WMKP/PEN METAR and TAF weather

Enter ICAO airport designator
Station Type Date Time Source
WMKP METAR 2021/09/16 10:30 UTC NOAA

WMKP 161030Z 28003KT 230V010 9999 FEW017CB 30/24 Q1007 NOSIG


Station Type Date Time Source
WMKP Decoded METAR 2021/09/16 10:30 UTC NOAA

Penang / Bayan Lepas, Malaysia (WMKP) 05-18N 100-16E 4M
Sep 16, 2021 - 06:30 AM EDT / 2021.09.16 1030 UTC
Wind: from the W (280 degrees) at 3 MPH (3 KT) (direction variable):0
Visibility: greater than 7 mile(s):0
Sky conditions: mostly clear
Weather: Cumulonimbus clouds observed
Temperature: 86 F (30 C)
Heat index: 95.0 F (35.0 C):1
Dew Point: 75 F (24 C)
Relative Humidity: 70%
Pressure (altimeter): 29.74 in. Hg (1007 hPa)
ob: WMKP 161030Z 28003KT 230V010 9999 FEW017CB 30/24 Q1007 NOSIG
cycle: 10

Station Type Date Time Source
WMKP TAF 2021/09/16 06:10 UTC NOAA

TAF WMKP 160500Z 1606/1706 22008KT 9000 FEW020
TEMPO 1606/1609 FEW017CB
BECMG 1612/1614 VRB03KT 8000 FEW025
TEMPO 1620/1623 6000 -TSRA FEW010 FEW017CB

Example: see airport list